Time;durP1;ratioP1;P1;durP2;ratioP2;P2;SDS_P1;SDS_P2;PMS_P1;PMS_P2;Temp;Humidity;BMP_temperature;BMP_pressure;BME280_temperature;BME280_humidity;BME280_pressure;Samples;Min_cycle;Max_cycle;Signal;HPM_P1;HPM_P2
2022/11/17 00:00:22;;;;;;;8.87;6.33;;;13.30;61.00;;;;;;5098914;28;20443;-88
2022/11/17 00:02:49;;;;;;;13.90;7.33;;;13.30;60.60;;;;;;5084370;28;20474;-90
2022/11/17 00:05:17;;;;;;;13.23;7.93;;;13.40;60.40;;;;;;5079622;28;20474;-90
2022/11/17 00:07:45;;;;;;;10.73;6.90;;;13.50;60.20;;;;;;5095972;28;20558;-87
2022/11/17 00:10:12;;;;;;;10.33;7.23;;;13.40;60.20;;;;;;5097209;28;20545;-87
2022/11/17 00:15:24;;;;;;;11.60;7.30;;;13.50;60.20;;;;;;5068376;28;20498;-86
2022/11/17 00:21:17;;;;;;;14.23;6.90;;;13.10;61.00;;;;;;5098909;28;20568;-86
2022/11/17 00:23:45;;;;;;;12.53;7.43;;;12.40;63.80;;;;;;5095459;28;20487;-90
2022/11/17 00:26:14;;;;;;;9.87;7.60;;;12.70;63.00;;;;;;5097944;28;20841;-85
2022/11/17 00:28:41;;;;;;;8.37;6.00;;;12.50;63.60;;;;;;5066445;28;20471;-85
2022/11/17 00:34:07;;;;;;;10.90;6.63;;;12.90;61.90;;;;;;5095590;28;20455;-86
2022/11/17 00:36:39;;;;;;;9.30;6.30;;;12.90;61.20;;;;;;5093910;28;20448;-86
2022/11/17 00:39:07;;;;;;;9.50;6.10;;;12.90;61.50;;;;;;5096305;28;20439;-86
2022/11/17 00:41:34;;;;;;;11.47;7.43;;;12.90;61.40;;;;;;5098086;28;20447;-89
2022/11/17 00:44:01;;;;;;;12.70;7.07;;;12.90;61.60;;;;;;5096283;28;20447;-86
2022/11/17 00:46:28;;;;;;;14.07;6.80;;;13.00;61.80;;;;;;5099983;28;20961;-86
2022/11/17 00:48:55;;;;;;;12.83;7.20;;;12.80;62.40;;;;;;5097855;28;20541;-88
2022/11/17 00:51:22;;;;;;;14.30;7.33;;;12.60;63.20;;;;;;5096810;28;20456;-86
2022/11/17 00:53:51;;;;;;;14.83;7.83;;;12.60;63.40;;;;;;5097939;28;20489;-89
2022/11/17 00:56:18;;;;;;;12.27;7.80;;;12.70;63.00;;;;;;5086563;28;20488;-86
2022/11/17 00:58:45;;;;;;;9.40;6.83;;;12.90;62.20;;;;;;5097753;28;20447;-86
2022/11/17 01:01:13;;;;;;;13.80;7.80;;;13.10;61.90;;;;;;5097892;28;20982;-86
2022/11/17 01:03:40;;;;;;;9.97;7.73;;;13.10;61.50;;;;;;5096614;28;20938;-86
2022/11/17 01:06:09;;;;;;;11.33;8.17;;;13.10;61.00;;;;;;5104159;28;20553;-87
2022/11/17 01:08:37;;;;;;;13.03;9.50;;;13.10;60.70;;;;;;5097799;28;20524;-86
2022/11/17 01:11:08;;;;;;;12.97;10.43;;;13.10;60.80;;;;;;5100350;28;20453;-86
2022/11/17 01:13:35;;;;;;;13.67;9.30;;;13.10;61.10;;;;;;5083557;28;20470;-86
2022/11/17 01:16:04;;;;;;;14.30;9.37;;;13.20;61.30;;;;;;5098102;28;20471;-85
2022/11/17 01:18:31;;;;;;;12.10;9.67;;;13.20;61.20;;;;;;5093364;28;20444;-85
2022/11/17 01:21:04;;;;;;;10.90;8.10;;;13.30;61.20;;;;;;5101206;28;20558;-87
2022/11/17 01:23:32;;;;;;;12.80;8.20;;;13.30;61.20;;;;;;5094434;28;20432;-86
2022/11/17 01:26:06;;;;;;;10.90;9.57;;;13.30;61.20;;;;;;5104243;28;20478;-86
2022/11/17 01:28:34;;;;;;;14.77;8.40;;;13.30;61.00;;;;;;5075343;28;20455;-86
2022/11/17 01:31:03;;;;;;;9.30;7.97;;;13.40;60.80;;;;;;5099261;28;20443;-87
2022/11/17 01:33:31;;;;;;;9.63;7.60;;;13.30;60.50;;;;;;5099504;28;20532;-88
2022/11/17 01:36:01;;;;;;;11.20;7.83;;;13.20;61.00;;;;;;5102825;28;20537;-86
2022/11/17 01:38:28;;;;;;;12.27;8.63;;;13.20;61.20;;;;;;5068547;28;20836;-86
2022/11/17 01:40:57;;;;;;;11.20;7.67;;;13.30;61.20;;;;;;5079028;28;21107;-86
2022/11/17 01:43:43;;;;;;;10.23;7.33;;;13.30;61.20;;;;;;5099270;28;20479;-86
2022/11/17 01:46:31;;;;;;;9.17;7.13;;;13.30;61.90;;;;;;5070255;28;20484;-87
2022/11/17 01:49:03;;;;;;;13.60;7.77;;;13.30;62.00;;;;;;5094839;28;20471;-87
2022/11/17 01:51:32;;;;;;;10.00;6.90;;;13.30;61.40;;;;;;5094972;28;20450;-88
2022/11/17 01:53:59;;;;;;;13.40;7.43;;;13.40;61.10;;;;;;5078186;28;20448;-87
2022/11/17 01:56:31;;;;;;;11.33;6.97;;;13.40;60.90;;;;;;5094919;28;20475;-86
2022/11/17 01:59:05;;;;;;;10.60;7.50;;;13.40;60.80;;;;;;5086629;28;20490;-86
2022/11/17 02:01:33;;;;;;;11.80;6.50;;;13.40;60.60;;;;;;5095843;28;20438;-87
2022/11/17 02:04:01;;;;;;;12.90;8.30;;;13.30;60.60;;;;;;5101957;28;21256;-88
2022/11/17 02:06:31;;;;;;;11.23;8.33;;;13.30;60.80;;;;;;5097390;28;20459;-84
2022/11/17 02:09:02;;;;;;;11.07;8.23;;;13.20;61.40;;;;;;5095278;28;20573;-86
2022/11/17 02:11:34;;;;;;;15.53;7.87;;;13.20;61.80;;;;;;5094357;28;21229;-85
2022/11/17 02:14:04;;;;;;;10.23;7.07;;;13.20;61.60;;;;;;5095935;28;20873;-86
2022/11/17 02:16:31;;;;;;;8.83;6.77;;;13.30;61.50;;;;;;5067792;28;20540;-85
2022/11/17 02:18:58;;;;;;;14.57;7.60;;;13.30;61.40;;;;;;5095114;28;20942;-86
2022/11/17 02:21:52;;;;;;;11.30;7.67;;;13.30;61.20;;;;;;5067899;28;20460;-86
2022/11/17 02:24:58;;;;;;;8.90;6.70;;;13.40;61.30;;;;;;5094966;28;20459;-85
2022/11/17 02:27:41;;;;;;;9.90;6.77;;;13.40;61.30;;;;;;5092680;28;20455;-86
2022/11/17 02:30:12;;;;;;;12.20;7.70;;;13.30;61.40;;;;;;5096342;28;20463;-85
2022/11/17 02:32:46;;;;;;;9.13;6.30;;;13.30;61.80;;;;;;5095494;28;20496;-88
2022/11/17 02:35:19;;;;;;;14.30;7.43;;;13.30;61.70;;;;;;5061400;28;20465;-89
2022/11/17 02:37:55;;;;;;;8.97;6.67;;;13.30;61.70;;;;;;5076046;28;20448;-85
2022/11/17 02:40:26;;;;;;;11.93;7.60;;;13.30;61.70;;;;;;5077330;28;20819;-86
2022/11/17 02:45:50;;;;;;;9.93;6.80;;;13.00;62.00;;;;;;5066828;28;20836;-87
2022/11/17 02:48:23;;;;;;;9.83;6.47;;;13.00;62.30;;;;;;5078313;28;20537;-86
2022/11/17 02:50:53;;;;;;;10.67;6.73;;;13.10;62.30;;;;;;5094379;28;20473;-86
2022/11/17 02:53:22;;;;;;;12.40;7.00;;;13.10;62.20;;;;;;5094160;28;20450;-87
2022/11/17 02:55:50;;;;;;;10.13;6.50;;;13.10;62.00;;;;;;5076114;28;20470;-86
2022/11/17 02:58:18;;;;;;;8.67;6.37;;;13.10;62.00;;;;;;5075371;28;20443;-86
2022/11/17 03:00:58;;;;;;;9.93;7.50;;;13.20;62.20;;;;;;5074349;28;20452;-85
2022/11/17 03:03:39;;;;;;;11.90;6.73;;;13.20;62.10;;;;;;5094444;28;20443;-87
2022/11/17 03:06:15;;;;;;;14.67;9.10;;;13.30;62.20;;;;;;5079536;28;20470;-87
2022/11/17 03:08:48;;;;;;;24.33;12.53;;;13.30;62.30;;;;;;5100561;28;20466;-85
2022/11/17 03:11:15;;;;;;;21.00;12.60;;;13.40;62.10;;;;;;5078583;28;20452;-86
2022/11/17 03:13:49;;;;;;;35.73;19.93;;;13.40;61.80;;;;;;5101284;28;20443;-84
2022/11/17 03:16:26;;;;;;;36.30;19.17;;;13.40;62.10;;;;;;5068874;28;20549;-89
2022/11/17 03:19:03;;;;;;;20.37;11.23;;;13.50;62.20;;;;;;5065978;28;20439;-87
2022/11/17 03:21:34;;;;;;;12.77;7.70;;;13.50;62.30;;;;;;5081334;28;20859;-88
2022/11/17 03:24:05;;;;;;;10.67;7.60;;;13.40;62.20;;;;;;5080555;28;20984;-86
2022/11/17 03:26:35;;;;;;;10.33;7.00;;;13.30;62.70;;;;;;5082494;28;20832;-88
2022/11/17 03:29:08;;;;;;;11.83;7.30;;;13.40;62.70;;;;;;5079873;28;20463;-88
2022/11/17 03:31:37;;;;;;;8.63;7.00;;;13.30;62.80;;;;;;5096782;28;20526;-86
2022/11/17 03:34:09;;;;;;;12.90;7.00;;;13.30;62.40;;;;;;5087486;28;20958;-90
2022/11/17 03:36:39;;;;;;;10.27;7.40;;;13.20;62.30;;;;;;5080939;28;20485;-86
2022/11/17 03:39:11;;;;;;;16.67;8.13;;;13.20;62.40;;;;;;5064702;28;20427;-88
2022/11/17 03:41:45;;;;;;;11.57;8.70;;;13.30;63.30;;;;;;5071107;28;20450;-86
2022/11/17 03:44:17;;;;;;;10.63;7.77;;;13.30;62.80;;;;;;5081809;28;20459;-87
2022/11/17 03:46:49;;;;;;;12.57;7.60;;;13.20;62.70;;;;;;5064559;28;20452;-86
2022/11/17 03:49:23;;;;;;;12.70;7.77;;;13.10;63.20;;;;;;5076849;28;20481;-90
2022/11/17 03:51:50;;;;;;;9.40;7.30;;;13.10;63.50;;;;;;5063914;28;20457;-87
2022/11/17 03:54:18;;;;;;;12.17;7.23;;;13.30;63.40;;;;;;5080962;28;21245;-86
2022/11/17 03:56:54;;;;;;;9.03;6.47;;;13.20;64.20;;;;;;5080049;28;20459;-87
2022/11/17 03:59:29;;;;;;;8.30;6.80;;;13.30;63.80;;;;;;5070893;28;20517;-86
2022/11/17 04:01:56;;;;;;;11.90;8.10;;;13.40;63.50;;;;;;5063854;28;20453;-86
2022/11/17 04:04:23;;;;;;;10.77;7.13;;;13.50;63.40;;;;;;5096955;28;20454;-86
2022/11/17 04:06:52;;;;;;;14.13;8.47;;;13.60;63.20;;;;;;5080128;28;20968;-87
2022/11/17 04:09:19;;;;;;;11.77;8.10;;;13.60;63.30;;;;;;5082230;28;21045;-88
2022/11/17 04:17:16;;;;;;;13.20;9.00;;;13.10;64.50;;;;;;5069576;28;20439;-87
2022/11/17 04:19:44;;;;;;;14.77;9.80;;;13.20;64.80;;;;;;5076424;28;20448;-87
2022/11/17 04:22:11;;;;;;;14.23;9.00;;;13.30;64.50;;;;;;5045860;28;20458;-87
2022/11/17 04:24:38;;;;;;;16.90;9.97;;;13.30;64.20;;;;;;5076249;28;20478;-85
2022/11/17 04:29:50;;;;;;;14.53;9.33;;;13.00;65.40;;;;;;5080470;28;21056;-87
2022/11/17 04:32:17;;;;;;;12.10;9.30;;;12.80;66.20;;;;;;5063289;28;20457;-86
2022/11/17 04:34:44;;;;;;;14.67;9.90;;;13.10;65.70;;;;;;5068611;28;20880;-86
2022/11/17 04:37:16;;;;;;;12.27;8.70;;;13.30;65.00;;;;;;5061711;28;20453;-86
2022/11/17 04:39:44;;;;;;;17.60;10.00;;;13.40;64.30;;;;;;5093740;28;20447;-86
2022/11/17 04:42:10;;;;;;;14.13;9.57;;;13.60;63.80;;;;;;5096383;28;20451;-86
2022/11/17 04:44:37;;;;;;;21.30;12.37;;;13.70;63.40;;;;;;5095959;28;20977;-86
2022/11/17 04:47:05;;;;;;;34.10;19.70;;;13.70;63.00;;;;;;5094708;28;20814;-87
2022/11/17 04:49:33;;;;;;;42.87;23.77;;;13.70;63.20;;;;;;5058647;28;20456;-87
2022/11/17 04:52:01;;;;;;;45.07;25.77;;;13.80;63.40;;;;;;5099045;28;20448;-87
2022/11/17 04:54:28;;;;;;;42.47;23.77;;;13.40;64.10;;;;;;5058634;28;20457;-87
2022/11/17 04:56:55;;;;;;;41.97;23.63;;;13.50;64.00;;;;;;5092917;28;20462;-86
2022/11/17 04:59:23;;;;;;;39.23;23.80;;;13.60;63.70;;;;;;5079631;28;20534;-87
2022/11/17 05:01:50;;;;;;;33.70;20.60;;;13.70;63.30;;;;;;5097763;28;20457;-88
2022/11/17 05:07:01;;;;;;;35.73;22.13;;;13.80;63.30;;;;;;5065273;28;20443;-89
2022/11/17 05:09:28;;;;;;;29.13;18.70;;;13.60;63.90;;;;;;5064389;28;20470;-88
2022/11/17 05:14:40;;;;;;;29.67;18.77;;;13.80;64.00;;;;;;5085352;28;20498;-87
2022/11/17 05:17:08;;;;;;;41.07;27.90;;;13.70;63.90;;;;;;5040793;28;20455;-88
2022/11/17 05:19:38;;;;;;;24.93;14.87;;;13.70;63.90;;;;;;5044657;28;20542;-91
2022/11/17 05:23:52;;;;;;;24.00;16.30;;;13.70;63.80;;;;;;5078347;28;20550;-87
2022/11/17 05:24:53;;;;;;;38.87;29.07;;;13.70;63.60;;;;;;5065182;28;20459;-87
2022/11/17 05:27:21;;;;;;;25.90;16.87;;;13.40;64.60;;;;;;5066659;28;20447;-85
2022/11/17 05:29:48;;;;;;;23.93;16.30;;;13.30;64.70;;;;;;5084049;28;21030;-86
2022/11/17 05:32:16;;;;;;;25.60;16.00;;;13.30;65.30;;;;;;5042951;28;20841;-87
2022/11/17 05:34:44;;;;;;;24.10;15.47;;;13.50;64.90;;;;;;5066754;28;20678;-87
2022/11/17 05:37:12;;;;;;;23.60;14.33;;;13.70;64.50;;;;;;5067120;28;20440;-87
2022/11/17 05:39:39;;;;;;;20.33;13.77;;;13.70;64.20;;;;;;5074925;28;20967;-88
2022/11/17 05:42:06;;;;;;;20.90;13.13;;;13.80;64.00;;;;;;5060332;28;20446;-88
2022/11/17 05:44:33;;;;;;;16.50;11.90;;;13.90;63.90;;;;;;5095564;28;21011;-87
2022/11/17 05:47:00;;;;;;;20.47;14.83;;;13.90;63.70;;;;;;5063850;28;20508;-87
2022/11/17 05:49:27;;;;;;;22.90;15.90;;;13.80;64.00;;;;;;5080134;28;21052;-90
2022/11/17 05:51:55;;;;;;;39.40;22.10;;;13.90;64.00;;;;;;5079146;28;20544;-88
2022/11/17 05:54:22;;;;;;;25.30;17.10;;;13.90;63.60;;;;;;5095517;28;20455;-89
2022/11/17 05:56:52;;;;;;;20.00;13.60;;;13.90;63.40;;;;;;5094823;28;20462;-87
2022/11/17 05:59:24;;;;;;;18.10;12.37;;;13.80;63.20;;;;;;5084248;28;20814;-89
2022/11/17 06:01:57;;;;;;;18.60;11.47;;;13.60;64.20;;;;;;5081608;28;20528;-88
2022/11/17 06:04:24;;;;;;;27.00;15.43;;;13.60;64.00;;;;;;5076774;28;20517;-87
2022/11/17 06:06:51;;;;;;;25.30;16.50;;;13.70;64.10;;;;;;5060662;28;20458;-87
2022/11/17 06:09:20;;;;;;;34.47;18.40;;;13.70;63.90;;;;;;5060964;28;20572;-87
2022/11/17 06:11:47;;;;;;;26.93;17.23;;;13.60;63.70;;;;;;5059533;28;20451;-89
2022/11/17 06:14:14;;;;;;;27.00;16.43;;;13.60;64.40;;;;;;5094603;28;20942;-90
2022/11/17 06:16:44;;;;;;;26.63;15.20;;;13.40;64.90;;;;;;5052695;28;20473;-86
2022/11/17 06:19:18;;;;;;;20.70;13.27;;;13.40;65.60;;;;;;5095691;28;21278;-85
2022/11/17 06:21:45;;;;;;;24.10;14.30;;;13.60;65.20;;;;;;5065522;28;20458;-89
2022/11/17 06:24:12;;;;;;;16.90;11.07;;;13.70;64.70;;;;;;5096134;28;20456;-86
2022/11/17 06:26:42;;;;;;;19.30;13.07;;;13.70;63.80;;;;;;5095118;28;20467;-87
2022/11/17 06:29:11;;;;;;;16.57;11.60;;;13.70;63.70;;;;;;5049091;28;21009;-90
2022/11/17 06:31:39;;;;;;;18.50;10.53;;;13.70;63.60;;;;;;5067215;28;20828;-88
2022/11/17 06:34:06;;;;;;;16.40;9.80;;;13.70;63.60;;;;;;5066537;28;20443;-89
2022/11/17 06:36:34;;;;;;;10.77;8.20;;;13.40;64.60;;;;;;5079862;28;20479;-88
2022/11/17 06:39:01;;;;;;;13.10;8.77;;;13.10;65.70;;;;;;5059254;28;20452;-87
2022/11/17 06:41:28;;;;;;;10.80;8.43;;;13.20;65.70;;;;;;5069109;28;20520;-87
2022/11/17 06:43:56;;;;;;;15.80;9.50;;;13.30;65.50;;;;;;5060050;28;20451;-87
2022/11/17 06:46:23;;;;;;;9.80;8.30;;;13.50;65.00;;;;;;5094864;28;20470;-86
2022/11/17 06:48:50;;;;;;;13.27;8.90;;;13.70;64.60;;;;;;5090719;28;20458;-87
2022/11/17 06:51:17;;;;;;;17.70;11.37;;;13.70;64.20;;;;;;5062307;28;20510;-87
2022/11/17 06:53:44;;;;;;;19.17;11.40;;;13.30;65.80;;;;;;5058687;28;20455;-87
2022/11/17 06:56:12;;;;;;;17.67;11.40;;;13.40;66.00;;;;;;5080046;28;20482;-87
2022/11/17 06:58:40;;;;;;;19.17;12.00;;;13.60;65.50;;;;;;5061077;28;20450;-88
2022/11/17 07:01:11;;;;;;;14.57;10.57;;;13.70;65.00;;;;;;5075465;28;20440;-86
2022/11/17 07:03:40;;;;;;;16.70;10.47;;;13.70;65.80;;;;;;5074390;28;20521;-87
2022/11/17 07:06:08;;;;;;;13.23;9.83;;;13.80;64.50;;;;;;5068134;28;20531;-90
2022/11/17 07:08:37;;;;;;;17.93;11.30;;;13.80;64.10;;;;;;5061126;28;20466;-87
2022/11/17 07:11:07;;;;;;;17.63;14.90;;;13.60;65.20;;;;;;5079204;28;20540;-87
2022/11/17 07:13:35;;;;;;;13.33;11.57;;;13.50;66.00;;;;;;5079918;28;20446;-87
2022/11/17 07:16:04;;;;;;;10.93;8.57;;;13.30;65.40;;;;;;5075640;28;20497;-87
2022/11/17 07:18:32;;;;;;;12.70;8.87;;;13.10;66.10;;;;;;5062313;28;20524;-87
2022/11/17 07:21:02;;;;;;;14.00;10.90;;;13.10;67.30;;;;;;5074992;28;20443;-88
2022/11/17 07:23:30;;;;;;;15.67;12.70;;;13.20;67.10;;;;;;5077689;28;20448;-89
2022/11/17 07:25:57;;;;;;;13.90;11.87;;;13.40;66.50;;;;;;5063471;28;20462;-87
2022/11/17 07:28:24;;;;;;;20.03;13.63;;;13.70;66.40;;;;;;5068176;28;20465;-90
2022/11/17 07:30:51;;;;;;;27.47;16.03;;;13.80;65.60;;;;;;5080800;28;20467;-87
2022/11/17 07:33:18;;;;;;;19.93;13.20;;;13.90;65.00;;;;;;5078558;28;21006;-88
2022/11/17 07:35:47;;;;;;;20.23;16.17;;;13.90;64.90;;;;;;5078466;28;20470;-87
2022/11/17 07:38:14;;;;;;;24.43;18.50;;;13.60;65.70;;;;;;5076785;28;20827;-87
2022/11/17 07:40:41;;;;;;;28.90;17.80;;;13.40;66.60;;;;;;5080526;28;20481;-86
2022/11/17 07:43:08;;;;;;;23.97;17.47;;;13.30;67.20;;;;;;5095988;28;20454;-86
2022/11/17 07:45:37;;;;;;;25.47;18.50;;;13.50;67.20;;;;;;5064196;28;20477;-88
2022/11/17 07:48:05;;;;;;;26.13;18.70;;;13.70;66.70;;;;;;5081354;28;20806;-88
2022/11/17 07:50:33;;;;;;;34.40;23.50;;;13.90;66.00;;;;;;5076685;28;20466;-87
2022/11/17 07:53:02;;;;;;;21.17;17.70;;;13.70;66.20;;;;;;5089847;28;20447;-89
2022/11/17 07:55:29;;;;;;;29.70;14.60;;;13.80;65.80;;;;;;5077771;28;20521;-87
2022/11/17 07:57:57;;;;;;;60.87;49.50;;;13.80;65.20;;;;;;5081774;28;20447;-88
2022/11/17 08:00:24;;;;;;;24.20;16.50;;;13.80;65.50;;;;;;5073536;28;20999;-86
2022/11/17 08:02:52;;;;;;;19.17;13.87;;;13.80;66.00;;;;;;5099829;28;21356;-86
2022/11/17 08:05:19;;;;;;;15.87;11.37;;;13.80;66.00;;;;;;5094846;28;20451;-86
2022/11/17 08:07:53;;;;;;;15.60;12.70;;;13.90;65.60;;;;;;5098122;28;20444;-87
2022/11/17 08:10:23;;;;;;;14.57;11.00;;;13.80;66.70;;;;;;5100392;28;20539;-87
2022/11/17 08:12:51;;;;;;;17.50;12.83;;;13.90;65.70;;;;;;5083053;28;20465;-86
2022/11/17 08:15:18;;;;;;;16.90;12.60;;;13.80;66.10;;;;;;5093154;28;20470;-87
2022/11/17 08:17:45;;;;;;;22.13;14.60;;;14.00;66.30;;;;;;5085042;28;20814;-87
2022/11/17 08:20:13;;;;;;;25.90;17.73;;;14.00;66.00;;;;;;5096604;28;20458;-87
2022/11/17 08:22:40;;;;;;;33.60;22.50;;;13.90;66.40;;;;;;5101727;28;20450;-86
2022/11/17 08:25:07;;;;;;;24.57;16.43;;;13.70;67.00;;;;;;5096354;28;20478;-85
2022/11/17 08:27:36;;;;;;;19.10;13.47;;;13.70;67.70;;;;;;5108210;28;20435;-90
2022/11/17 08:30:03;;;;;;;27.27;19.30;;;13.70;68.10;;;;;;5090339;28;20500;-87
2022/11/17 08:32:30;;;;;;;21.87;16.40;;;13.50;68.70;;;;;;5098809;28;20513;-87
2022/11/17 08:34:57;;;;;;;28.77;17.23;;;13.60;69.00;;;;;;5087846;28;20528;-89
2022/11/17 08:37:24;;;;;;;23.63;14.70;;;13.80;67.60;;;;;;5089673;28;20455;-87
2022/11/17 08:39:51;;;;;;;15.87;10.27;;;14.00;66.90;;;;;;5100776;28;20440;-87
2022/11/17 08:42:18;;;;;;;17.70;13.10;;;14.10;66.10;;;;;;5098166;28;22305;-88
2022/11/17 08:44:46;;;;;;;17.87;12.00;;;14.20;66.00;;;;;;5098614;28;20468;-89
2022/11/17 08:47:13;;;;;;;12.60;10.27;;;14.10;66.70;;;;;;5088793;28;20530;-87
2022/11/17 08:49:40;;;;;;;22.43;12.97;;;14.10;66.90;;;;;;5101648;28;20457;-87
2022/11/17 08:52:07;;;;;;;15.50;11.53;;;14.10;68.00;;;;;;5085309;28;20557;-88
2022/11/17 08:54:34;;;;;;;20.87;14.40;;;14.20;67.30;;;;;;5079215;28;20456;-87
2022/11/17 08:57:01;;;;;;;32.20;20.27;;;14.30;67.80;;;;;;5086648;28;20451;-87
2022/11/17 08:59:28;;;;;;;22.90;13.80;;;14.30;66.80;;;;;;5097594;28;20526;-87
2022/11/17 09:01:57;;;;;;;24.70;14.80;;;14.20;67.30;;;;;;5097774;28;20439;-87
2022/11/17 09:04:24;;;;;;;65.23;35.60;;;14.30;67.20;;;;;;5083591;28;20439;-87
2022/11/17 09:06:51;;;;;;;39.03;23.80;;;14.40;67.20;;;;;;5095909;28;20439;-87
2022/11/17 09:09:17;;;;;;;19.87;14.00;;;14.50;67.10;;;;;;5097011;28;20835;-87
2022/11/17 09:11:44;;;;;;;15.17;12.10;;;14.50;67.00;;;;;;5096051;28;20490;-87
2022/11/17 09:14:11;;;;;;;19.47;16.93;;;14.50;66.60;;;;;;5096880;28;20445;-87
2022/11/17 09:16:38;;;;;;;9.93;5.87;;;14.20;67.20;;;;;;5095416;28;21359;-88
2022/11/17 09:19:07;;;;;;;3.73;3.30;;;14.00;68.30;;;;;;5102909;28;20439;-88
2022/11/17 09:21:34;;;;;;;8.37;3.90;;;14.00;68.20;;;;;;5084134;28;21169;-86
2022/11/17 09:24:01;;;;;;;3.80;3.40;;;14.00;69.20;;;;;;5102840;28;20954;-86
2022/11/17 09:26:28;;;;;;;2.50;2.30;;;14.20;68.60;;;;;;5098130;28;20479;-87
2022/11/17 09:28:55;;;;;;;3.77;2.97;;;14.40;68.00;;;;;;5097121;28;20450;-85
2022/11/17 09:31:22;;;;;;;8.43;5.60;;;14.20;68.80;;;;;;5103575;28;20478;-86
2022/11/17 09:33:49;;;;;;;3.23;2.20;;;14.20;68.90;;;;;;5096617;28;20509;-88
2022/11/17 09:36:18;;;;;;;3.20;2.70;;;14.00;69.50;;;;;;5098748;28;20475;-87
2022/11/17 09:38:46;;;;;;;4.00;3.60;;;14.00;70.90;;;;;;5093504;28;20448;-87
2022/11/17 09:41:31;;;;;;;7.07;4.27;;;14.40;70.20;;;;;;5093375;28;20810;-86
2022/11/17 09:44:06;;;;;;;13.03;8.10;;;14.50;70.00;;;;;;5094702;28;20448;-86
2022/11/17 09:46:49;;;;;;;9.37;7.10;;;14.50;69.50;;;;;;5098310;28;20513;-88
2022/11/17 09:49:30;;;;;;;9.70;6.47;;;14.80;69.70;;;;;;5102234;28;20451;-83
2022/11/17 09:52:05;;;;;;;14.33;7.30;;;14.90;69.00;;;;;;5081126;28;20985;-87
2022/11/17 09:54:42;;;;;;;9.70;6.37;;;14.90;68.70;;;;;;5084603;28;20454;-87
2022/11/17 09:57:18;;;;;;;7.50;4.60;;;15.00;68.50;;;;;;5093239;28;20605;-87
2022/11/17 09:59:47;;;;;;;8.57;5.67;;;14.80;68.40;;;;;;5093163;28;20451;-85
2022/11/17 10:02:14;;;;;;;4.73;2.20;;;14.30;69.20;;;;;;5084419;28;20695;-85
2022/11/17 10:04:41;;;;;;;5.30;2.20;;;14.30;70.50;;;;;;5092438;28;20467;-89
2022/11/17 10:07:10;;;;;;;3.93;2.00;;;14.30;70.40;;;;;;5091676;28;20457;-85
2022/11/17 10:09:41;;;;;;;16.33;13.13;;;14.50;70.00;;;;;;5091948;28;20645;-86
2022/11/17 10:12:16;;;;;;;17.23;13.83;;;14.40;70.00;;;;;;5064605;28;20479;-87
2022/11/17 10:14:43;;;;;;;2.80;2.60;;;14.40;70.50;;;;;;5091269;28;20495;-86
2022/11/17 10:17:11;;;;;;;24.43;21.00;;;14.50;70.60;;;;;;5091329;28;20455;-86
2022/11/17 10:19:39;;;;;;;9.87;6.77;;;14.50;70.40;;;;;;5090416;28;20471;-86
2022/11/17 10:22:33;;;;;;;3.60;2.93;;;14.50;70.30;;;;;;5074162;28;20462;-86
2022/11/17 10:25:00;;;;;;;14.23;9.80;;;14.80;70.00;;;;;;5071261;28;20478;-87
2022/11/17 10:27:29;;;;;;;5.73;4.10;;;14.90;69.50;;;;;;5077611;28;20977;-85
2022/11/17 10:30:01;;;;;;;7.73;4.80;;;15.00;69.40;;;;;;5088681;28;20444;-86
2022/11/17 10:32:29;;;;;;;4.40;3.30;;;14.90;69.60;;;;;;5090237;28;20527;-86
2022/11/17 10:35:12;;;;;;;4.30;3.43;;;14.70;69.80;;;;;;5092530;28;20478;-86
2022/11/17 10:37:44;;;;;;;5.13;4.27;;;14.60;70.20;;;;;;5071085;28;20500;-86
2022/11/17 10:40:20;;;;;;;18.93;12.80;;;14.90;69.90;;;;;;5069653;28;20455;-88
2022/11/17 10:43:00;;;;;;;7.20;4.83;;;15.00;69.70;;;;;;5090590;28;20442;-85
2022/11/17 10:45:27;;;;;;;6.40;4.87;;;15.00;69.70;;;;;;5091815;28;20463;-88
2022/11/17 10:48:08;;;;;;;7.13;5.00;;;15.00;70.60;;;;;;5075384;28;20458;-86
2022/11/17 10:50:36;;;;;;;6.77;4.70;;;14.90;70.70;;;;;;5091813;28;20523;-88
2022/11/17 10:53:22;;;;;;;11.10;5.50;;;15.00;70.00;;;;;;5071201;28;20527;-86
2022/11/17 10:55:56;;;;;;;6.63;4.47;;;15.10;70.00;;;;;;5088964;28;20632;-86
2022/11/17 10:58:25;;;;;;;8.13;4.20;;;15.20;69.50;;;;;;5089465;28;20439;-86
2022/11/17 11:00:54;;;;;;;65.33;31.50;;;15.30;69.00;;;;;;5076501;28;20440;-86
2022/11/17 11:03:23;;;;;;;155.27;101.30;;;15.30;69.00;;;;;;5075181;28;21217;-86
2022/11/17 11:06:04;;;;;;;8.63;7.80;;;15.10;70.10;;;;;;5078151;28;20605;-88
2022/11/17 11:08:38;;;;;;;4.13;3.73;;;15.10;70.10;;;;;;5075956;28;20439;-86
2022/11/17 11:11:12;;;;;;;5.63;5.00;;;15.20;70.00;;;;;;5050795;28;20505;-88
2022/11/17 11:13:45;;;;;;;6.67;5.07;;;15.40;69.70;;;;;;5090851;28;20466;-86
2022/11/17 11:16:12;;;;;;;5.70;3.40;;;15.40;69.70;;;;;;5089484;28;20458;-86
2022/11/17 11:18:39;;;;;;;4.50;3.30;;;15.60;69.20;;;;;;5073502;28;20883;-85
2022/11/17 11:21:13;;;;;;;6.63;3.00;;;15.70;68.80;;;;;;5072631;28;20975;-85
2022/11/17 11:23:56;;;;;;;5.13;3.17;;;15.70;68.70;;;;;;5053263;28;21369;-86
2022/11/17 11:26:34;;;;;;;4.30;2.30;;;15.80;68.60;;;;;;5094916;28;20513;-86
2022/11/17 11:29:12;;;;;;;2.47;2.27;;;15.80;68.70;;;;;;5076364;28;20537;-87
2022/11/17 11:31:52;;;;;;;4.67;4.17;;;15.90;68.40;;;;;;5070379;28;21072;-85
2022/11/17 11:34:34;;;;;;;3.30;2.20;;;16.00;67.80;;;;;;5100744;28;20449;-86
2022/11/17 11:37:06;;;;;;;6.10;2.13;;;16.00;67.50;;;;;;5068071;28;20463;-86
2022/11/17 11:39:46;;;;;;;6.97;1.87;;;16.00;67.10;;;;;;5078791;28;20450;-87
2022/11/17 11:42:30;;;;;;;4.90;1.50;;;15.80;66.90;;;;;;5080433;28;20942;-86
2022/11/17 11:45:17;;;;;;;5.10;1.50;;;15.80;66.70;;;;;;5078661;28;20467;-86
2022/11/17 11:48:14;;;;;;;3.00;2.23;;;15.60;66.20;;;;;;5081194;28;20431;-87
2022/11/17 11:50:54;;;;;;;3.17;1.50;;;15.60;66.60;;;;;;5079360;28;20456;-86
2022/11/17 11:53:31;;;;;;;6.33;1.47;;;15.50;67.00;;;;;;5087662;28;20442;-86
2022/11/17 11:56:17;;;;;;;3.83;1.90;;;15.20;68.00;;;;;;5085851;28;20490;-85
2022/11/17 11:58:49;;;;;;;11.37;1.67;;;15.40;68.10;;;;;;5080240;28;20523;-85
2022/11/17 12:01:19;;;;;;;3.50;1.47;;;15.40;67.60;;;;;;5077343;28;20450;-85
2022/11/17 12:03:53;;;;;;;9.30;1.40;;;15.40;67.30;;;;;;5055347;28;20915;-88
2022/11/17 12:06:42;;;;;;;5.07;2.60;;;15.30;67.70;;;;;;5061914;28;20459;-86
2022/11/17 12:09:53;;;;;;;3.43;3.00;;;15.40;67.80;;;;;;5095425;28;20450;-85
2022/11/17 12:12:30;;;;;;;4.87;3.00;;;15.50;67.60;;;;;;5098051;28;20474;-85
2022/11/17 12:15:29;;;;;;;3.13;1.30;;;15.70;66.80;;;;;;5077849;28;20477;-84
2022/11/17 12:18:02;;;;;;;2.40;1.30;;;15.90;65.70;;;;;;5098701;28;21074;-86
2022/11/17 12:20:54;;;;;;;3.37;1.97;;;16.00;64.90;;;;;;5087674;28;20960;-87
2022/11/17 12:23:30;;;;;;;2.50;1.10;;;16.10;66.00;;;;;;5077522;28;20453;-86
2022/11/17 12:25:59;;;;;;;3.00;1.10;;;16.00;63.90;;;;;;5096952;28;20474;-85
2022/11/17 12:28:34;;;;;;;6.10;1.40;;;16.20;65.10;;;;;;5098052;28;20969;-86
2022/11/17 12:31:03;;;;;;;2.40;1.40;;;16.30;64.50;;;;;;5092055;28;20455;-86
2022/11/17 12:34:18;;;;;;;1.83;1.27;;;16.30;63.80;;;;;;5081721;28;20696;-87
2022/11/17 12:37:07;;;;;;;1.43;1.07;;;16.30;62.80;;;;;;5047859;28;20476;-89
2022/11/17 12:39:55;;;;;;;2.07;1.20;;;16.50;63.20;;;;;;5036195;28;20492;-87
2022/11/17 12:42:22;;;;;;;4.77;1.30;;;16.70;62.40;;;;;;5084662;28;20508;-86
2022/11/17 12:45:10;;;;;;;3.83;0.90;;;16.40;62.40;;;;;;5096345;28;20474;-87
2022/11/17 12:47:38;;;;;;;1.27;1.07;;;16.30;62.40;;;;;;5076535;28;20451;-87
2022/11/17 12:50:50;;;;;;;7.13;1.30;;;16.20;62.80;;;;;;5095388;28;20435;-89
2022/11/17 12:53:37;;;;;;;1.73;1.30;;;16.10;62.70;;;;;;5079619;28;20982;-88
2022/11/17 12:56:37;;;;;;;4.20;2.20;;;16.20;63.50;;;;;;5095802;28;20489;-88
2022/11/17 12:59:23;;;;;;;5.37;1.40;;;16.10;63.50;;;;;;5080881;28;20453;-87
2022/11/17 13:01:59;;;;;;;2.33;1.00;;;16.10;63.10;;;;;;5061743;28;20450;-86
2022/11/17 13:04:37;;;;;;;28.97;14.47;;;16.10;62.90;;;;;;5092077;28;20867;-87
2022/11/17 13:07:05;;;;;;;15.20;7.77;;;16.00;63.20;;;;;;5094440;28;20860;-87
2022/11/17 13:09:34;;;;;;;41.37;22.83;;;16.20;63.00;;;;;;5065866;28;20546;-88
2022/11/17 13:12:03;;;;;;;3.50;2.90;;;15.90;61.60;;;;;;5077019;28;20471;-85
2022/11/17 13:14:31;;;;;;;3.70;2.10;;;15.90;63.00;;;;;;5095840;28;20448;-85
2022/11/17 13:17:01;;;;;;;7.80;3.70;;;16.00;62.80;;;;;;5076629;28;20459;-87
2022/11/17 13:19:34;;;;;;;5.53;2.77;;;16.10;63.20;;;;;;5079588;28;20485;-87
2022/11/17 13:22:04;;;;;;;10.60;3.70;;;15.90;63.40;;;;;;5075833;28;20436;-87